sensor_id;sensor_type;location;lat;lon;timestamp;P1;durP1;ratioP1;P2;durP2;ratioP2
12163;SDS011;6145;50.192;10.064;2022-12-11T00:02:26;22.40;;;18.10;;
12163;SDS011;6145;50.192;10.064;2022-12-11T00:04:53;19.90;;;17.40;;
12163;SDS011;6145;50.192;10.064;2022-12-11T00:07:20;22.57;;;18.70;;
12163;SDS011;6145;50.192;10.064;2022-12-11T00:09:47;22.00;;;17.53;;
12163;SDS011;6145;50.192;10.064;2022-12-11T00:12:14;19.77;;;17.00;;
12163;SDS011;6145;50.192;10.064;2022-12-11T00:14:41;22.53;;;19.50;;
12163;SDS011;6145;50.192;10.064;2022-12-11T00:17:09;22.63;;;17.97;;
12163;SDS011;6145;50.192;10.064;2022-12-11T00:19:36;21.67;;;17.47;;
12163;SDS011;6145;50.192;10.064;2022-12-11T00:22:03;23.80;;;17.43;;
12163;SDS011;6145;50.192;10.064;2022-12-11T00:24:30;20.33;;;16.83;;
12163;SDS011;6145;50.192;10.064;2022-12-11T00:26:56;18.63;;;15.23;;
12163;SDS011;6145;50.192;10.064;2022-12-11T00:29:23;18.70;;;14.33;;
12163;SDS011;6145;50.192;10.064;2022-12-11T00:31:50;18.77;;;15.23;;
12163;SDS011;6145;50.192;10.064;2022-12-11T00:34:18;20.03;;;15.23;;
12163;SDS011;6145;50.192;10.064;2022-12-11T00:36:45;18.33;;;14.50;;
12163;SDS011;6145;50.192;10.064;2022-12-11T00:39:12;17.73;;;14.87;;
12163;SDS011;6145;50.192;10.064;2022-12-11T00:41:39;18.30;;;14.07;;
12163;SDS011;6145;50.192;10.064;2022-12-11T00:44:05;18.70;;;14.33;;
12163;SDS011;6145;50.192;10.064;2022-12-11T00:46:32;17.17;;;13.70;;
12163;SDS011;6145;50.192;10.064;2022-12-11T00:48:59;14.77;;;12.70;;
12163;SDS011;6145;50.192;10.064;2022-12-11T00:51:27;16.07;;;12.57;;
12163;SDS011;6145;50.192;10.064;2022-12-11T00:53:54;14.47;;;12.87;;
12163;SDS011;6145;50.192;10.064;2022-12-11T00:56:21;14.10;;;12.47;;
12163;SDS011;6145;50.192;10.064;2022-12-11T00:58:49;15.93;;;11.87;;
12163;SDS011;6145;50.192;10.064;2022-12-11T01:01:17;17.23;;;12.70;;
12163;SDS011;6145;50.192;10.064;2022-12-11T01:03:45;13.33;;;11.13;;
12163;SDS011;6145;50.192;10.064;2022-12-11T01:06:13;14.60;;;11.67;;
12163;SDS011;6145;50.192;10.064;2022-12-11T01:08:43;12.33;;;11.03;;
12163;SDS011;6145;50.192;10.064;2022-12-11T01:11:10;15.23;;;12.63;;
12163;SDS011;6145;50.192;10.064;2022-12-11T01:13:38;13.83;;;11.90;;
12163;SDS011;6145;50.192;10.064;2022-12-11T01:16:06;15.17;;;11.73;;
12163;SDS011;6145;50.192;10.064;2022-12-11T01:18:34;15.27;;;12.00;;
12163;SDS011;6145;50.192;10.064;2022-12-11T01:21:06;15.53;;;12.67;;
12163;SDS011;6145;50.192;10.064;2022-12-11T01:23:33;15.80;;;12.83;;
12163;SDS011;6145;50.192;10.064;2022-12-11T01:26:06;16.73;;;12.93;;
12163;SDS011;6145;50.192;10.064;2022-12-11T01:28:33;16.70;;;12.77;;
12163;SDS011;6145;50.192;10.064;2022-12-11T01:31:00;14.60;;;12.27;;
12163;SDS011;6145;50.192;10.064;2022-12-11T01:33:27;13.80;;;11.80;;
12163;SDS011;6145;50.192;10.064;2022-12-11T01:35:54;14.13;;;12.17;;
12163;SDS011;6145;50.192;10.064;2022-12-11T01:38:21;16.43;;;13.50;;
12163;SDS011;6145;50.192;10.064;2022-12-11T01:40:48;16.53;;;12.30;;
12163;SDS011;6145;50.192;10.064;2022-12-11T01:43:17;15.50;;;12.10;;
12163;SDS011;6145;50.192;10.064;2022-12-11T01:45:45;15.70;;;12.07;;
12163;SDS011;6145;50.192;10.064;2022-12-11T01:48:14;16.90;;;12.97;;
12163;SDS011;6145;50.192;10.064;2022-12-11T01:50:45;15.00;;;11.57;;
12163;SDS011;6145;50.192;10.064;2022-12-11T01:53:16;15.80;;;12.50;;
12163;SDS011;6145;50.192;10.064;2022-12-11T01:55:46;15.70;;;13.17;;
12163;SDS011;6145;50.192;10.064;2022-12-11T01:58:17;14.43;;;11.33;;
12163;SDS011;6145;50.192;10.064;2022-12-11T02:00:47;16.50;;;12.70;;
12163;SDS011;6145;50.192;10.064;2022-12-11T02:03:14;14.47;;;11.53;;
12163;SDS011;6145;50.192;10.064;2022-12-11T02:05:41;15.83;;;12.87;;
12163;SDS011;6145;50.192;10.064;2022-12-11T02:08:08;15.20;;;12.33;;
12163;SDS011;6145;50.192;10.064;2022-12-11T02:10:39;14.93;;;12.53;;
12163;SDS011;6145;50.192;10.064;2022-12-11T02:13:13;14.97;;;11.83;;
12163;SDS011;6145;50.192;10.064;2022-12-11T02:15:47;15.13;;;12.40;;
12163;SDS011;6145;50.192;10.064;2022-12-11T02:18:19;16.53;;;12.73;;
12163;SDS011;6145;50.192;10.064;2022-12-11T02:20:57;14.20;;;12.30;;
12163;SDS011;6145;50.192;10.064;2022-12-11T02:26:30;14.53;;;11.83;;
12163;SDS011;6145;50.192;10.064;2022-12-11T02:29:14;17.00;;;12.93;;
12163;SDS011;6145;50.192;10.064;2022-12-11T02:31:46;14.73;;;11.67;;
12163;SDS011;6145;50.192;10.064;2022-12-11T02:34:19;13.30;;;11.73;;
12163;SDS011;6145;50.192;10.064;2022-12-11T02:36:56;13.77;;;11.83;;
12163;SDS011;6145;50.192;10.064;2022-12-11T02:39:28;12.30;;;11.03;;
12163;SDS011;6145;50.192;10.064;2022-12-11T02:41:57;14.80;;;11.33;;
12163;SDS011;6145;50.192;10.064;2022-12-11T02:44:27;14.23;;;11.23;;
12163;SDS011;6145;50.192;10.064;2022-12-11T02:46:57;13.37;;;11.57;;
12163;SDS011;6145;50.192;10.064;2022-12-11T02:49:24;14.93;;;11.63;;
12163;SDS011;6145;50.192;10.064;2022-12-11T02:51:52;13.57;;;11.50;;
12163;SDS011;6145;50.192;10.064;2022-12-11T02:54:22;13.20;;;11.40;;
12163;SDS011;6145;50.192;10.064;2022-12-11T02:56:55;14.63;;;10.60;;
12163;SDS011;6145;50.192;10.064;2022-12-11T02:59:28;13.87;;;11.10;;
12163;SDS011;6145;50.192;10.064;2022-12-11T03:02:00;13.77;;;11.80;;
12163;SDS011;6145;50.192;10.064;2022-12-11T03:04:27;13.07;;;10.53;;
12163;SDS011;6145;50.192;10.064;2022-12-11T03:06:55;12.83;;;10.77;;
12163;SDS011;6145;50.192;10.064;2022-12-11T03:09:26;11.63;;;10.43;;
12163;SDS011;6145;50.192;10.064;2022-12-11T03:11:54;12.87;;;10.47;;
12163;SDS011;6145;50.192;10.064;2022-12-11T03:14:20;12.93;;;10.50;;
12163;SDS011;6145;50.192;10.064;2022-12-11T03:16:50;11.27;;;9.73;;
12163;SDS011;6145;50.192;10.064;2022-12-11T03:19:23;11.17;;;9.97;;
12163;SDS011;6145;50.192;10.064;2022-12-11T03:21:57;14.23;;;10.83;;
12163;SDS011;6145;50.192;10.064;2022-12-11T03:24:29;10.93;;;9.17;;
12163;SDS011;6145;50.192;10.064;2022-12-11T03:27:08;13.23;;;10.27;;
12163;SDS011;6145;50.192;10.064;2022-12-11T03:29:43;13.70;;;9.63;;
12163;SDS011;6145;50.192;10.064;2022-12-11T03:32:20;13.30;;;10.30;;
12163;SDS011;6145;50.192;10.064;2022-12-11T03:34:50;11.67;;;9.90;;
12163;SDS011;6145;50.192;10.064;2022-12-11T03:37:20;11.27;;;9.90;;
12163;SDS011;6145;50.192;10.064;2022-12-11T03:39:51;13.50;;;10.47;;
12163;SDS011;6145;50.192;10.064;2022-12-11T03:42:20;11.97;;;9.77;;
12163;SDS011;6145;50.192;10.064;2022-12-11T03:44:49;14.20;;;10.90;;
12163;SDS011;6145;50.192;10.064;2022-12-11T03:47:22;11.70;;;9.73;;
12163;SDS011;6145;50.192;10.064;2022-12-11T03:49:50;12.63;;;10.40;;
12163;SDS011;6145;50.192;10.064;2022-12-11T03:52:18;11.73;;;10.27;;
12163;SDS011;6145;50.192;10.064;2022-12-11T03:54:46;11.70;;;9.60;;
12163;SDS011;6145;50.192;10.064;2022-12-11T03:57:17;13.63;;;10.00;;
12163;SDS011;6145;50.192;10.064;2022-12-11T03:59:46;11.13;;;9.53;;
12163;SDS011;6145;50.192;10.064;2022-12-11T04:02:14;12.87;;;10.77;;
12163;SDS011;6145;50.192;10.064;2022-12-11T04:04:43;12.63;;;10.70;;
12163;SDS011;6145;50.192;10.064;2022-12-11T04:07:09;14.90;;;10.47;;
12163;SDS011;6145;50.192;10.064;2022-12-11T04:09:36;12.87;;;10.07;;
12163;SDS011;6145;50.192;10.064;2022-12-11T04:12:03;13.07;;;10.43;;
12163;SDS011;6145;50.192;10.064;2022-12-11T04:14:30;12.37;;;10.67;;
12163;SDS011;6145;50.192;10.064;2022-12-11T04:17:15;12.70;;;10.13;;
12163;SDS011;6145;50.192;10.064;2022-12-11T04:20:03;11.97;;;10.30;;
12163;SDS011;6145;50.192;10.064;2022-12-11T04:22:49;13.33;;;11.27;;
12163;SDS011;6145;50.192;10.064;2022-12-11T04:25:33;15.23;;;11.90;;
12163;SDS011;6145;50.192;10.064;2022-12-11T04:28:00;14.40;;;11.93;;
12163;SDS011;6145;50.192;10.064;2022-12-11T04:30:26;14.93;;;12.83;;
12163;SDS011;6145;50.192;10.064;2022-12-11T04:32:53;14.70;;;12.00;;
12163;SDS011;6145;50.192;10.064;2022-12-11T04:35:22;15.73;;;12.10;;
12163;SDS011;6145;50.192;10.064;2022-12-11T04:37:49;16.27;;;11.23;;
12163;SDS011;6145;50.192;10.064;2022-12-11T04:40:18;14.03;;;11.07;;
12163;SDS011;6145;50.192;10.064;2022-12-11T04:42:46;15.00;;;11.57;;
12163;SDS011;6145;50.192;10.064;2022-12-11T04:45:13;12.70;;;10.90;;
12163;SDS011;6145;50.192;10.064;2022-12-11T04:47:40;14.83;;;11.07;;
12163;SDS011;6145;50.192;10.064;2022-12-11T04:50:08;13.83;;;11.30;;
12163;SDS011;6145;50.192;10.064;2022-12-11T04:52:37;12.70;;;9.80;;
12163;SDS011;6145;50.192;10.064;2022-12-11T04:55:04;13.60;;;11.03;;
12163;SDS011;6145;50.192;10.064;2022-12-11T04:57:33;12.70;;;10.63;;
12163;SDS011;6145;50.192;10.064;2022-12-11T05:00:00;15.37;;;11.50;;
12163;SDS011;6145;50.192;10.064;2022-12-11T05:02:28;15.50;;;12.17;;
12163;SDS011;6145;50.192;10.064;2022-12-11T05:04:55;16.23;;;12.27;;
12163;SDS011;6145;50.192;10.064;2022-12-11T05:07:22;18.47;;;14.27;;
12163;SDS011;6145;50.192;10.064;2022-12-11T05:09:50;14.40;;;11.63;;
12163;SDS011;6145;50.192;10.064;2022-12-11T05:12:17;14.27;;;10.87;;
12163;SDS011;6145;50.192;10.064;2022-12-11T05:14:44;15.53;;;11.83;;
12163;SDS011;6145;50.192;10.064;2022-12-11T05:17:11;14.67;;;11.30;;
12163;SDS011;6145;50.192;10.064;2022-12-11T05:19:38;12.37;;;10.47;;
12163;SDS011;6145;50.192;10.064;2022-12-11T05:22:05;13.53;;;10.57;;
12163;SDS011;6145;50.192;10.064;2022-12-11T05:24:32;13.83;;;10.67;;
12163;SDS011;6145;50.192;10.064;2022-12-11T05:27:00;14.93;;;11.80;;
12163;SDS011;6145;50.192;10.064;2022-12-11T05:29:27;13.80;;;10.90;;
12163;SDS011;6145;50.192;10.064;2022-12-11T05:31:53;13.63;;;10.73;;
12163;SDS011;6145;50.192;10.064;2022-12-11T05:34:20;14.97;;;11.57;;
12163;SDS011;6145;50.192;10.064;2022-12-11T05:36:47;13.47;;;10.43;;
12163;SDS011;6145;50.192;10.064;2022-12-11T05:39:14;12.97;;;10.83;;
12163;SDS011;6145;50.192;10.064;2022-12-11T05:41:41;17.37;;;12.57;;
12163;SDS011;6145;50.192;10.064;2022-12-11T05:44:10;17.40;;;12.73;;
12163;SDS011;6145;50.192;10.064;2022-12-11T05:46:37;15.63;;;12.23;;
12163;SDS011;6145;50.192;10.064;2022-12-11T05:49:05;15.53;;;13.60;;
12163;SDS011;6145;50.192;10.064;2022-12-11T05:51:32;16.20;;;12.93;;
12163;SDS011;6145;50.192;10.064;2022-12-11T05:53:59;17.47;;;13.83;;
12163;SDS011;6145;50.192;10.064;2022-12-11T05:56:27;18.57;;;14.40;;
12163;SDS011;6145;50.192;10.064;2022-12-11T05:58:55;16.60;;;13.77;;
12163;SDS011;6145;50.192;10.064;2022-12-11T06:01:26;17.47;;;14.13;;
12163;SDS011;6145;50.192;10.064;2022-12-11T06:03:54;18.87;;;14.83;;
12163;SDS011;6145;50.192;10.064;2022-12-11T06:06:22;20.63;;;14.93;;
12163;SDS011;6145;50.192;10.064;2022-12-11T06:08:49;15.17;;;12.73;;
12163;SDS011;6145;50.192;10.064;2022-12-11T06:11:17;16.37;;;13.20;;
12163;SDS011;6145;50.192;10.064;2022-12-11T06:13:44;16.37;;;13.07;;
12163;SDS011;6145;50.192;10.064;2022-12-11T06:16:11;16.20;;;12.57;;
12163;SDS011;6145;50.192;10.064;2022-12-11T06:18:41;16.00;;;12.17;;
12163;SDS011;6145;50.192;10.064;2022-12-11T06:21:10;14.33;;;12.03;;
12163;SDS011;6145;50.192;10.064;2022-12-11T06:23:38;15.90;;;12.40;;
12163;SDS011;6145;50.192;10.064;2022-12-11T06:26:06;17.77;;;12.93;;
12163;SDS011;6145;50.192;10.064;2022-12-11T06:28:33;13.20;;;11.77;;
12163;SDS011;6145;50.192;10.064;2022-12-11T06:31:00;17.70;;;13.27;;
12163;SDS011;6145;50.192;10.064;2022-12-11T06:33:28;16.37;;;11.97;;
12163;SDS011;6145;50.192;10.064;2022-12-11T06:35:56;17.20;;;13.20;;
12163;SDS011;6145;50.192;10.064;2022-12-11T06:38:27;17.10;;;12.77;;
12163;SDS011;6145;50.192;10.064;2022-12-11T06:40:54;17.07;;;13.10;;
12163;SDS011;6145;50.192;10.064;2022-12-11T06:43:21;15.73;;;13.10;;
12163;SDS011;6145;50.192;10.064;2022-12-11T06:45:48;18.97;;;13.77;;
12163;SDS011;6145;50.192;10.064;2022-12-11T06:48:15;24.33;;;14.73;;
12163;SDS011;6145;50.192;10.064;2022-12-11T06:50:43;17.17;;;13.20;;
12163;SDS011;6145;50.192;10.064;2022-12-11T06:53:12;14.90;;;12.07;;
12163;SDS011;6145;50.192;10.064;2022-12-11T06:55:39;18.67;;;13.20;;
12163;SDS011;6145;50.192;10.064;2022-12-11T06:58:07;16.53;;;12.40;;
12163;SDS011;6145;50.192;10.064;2022-12-11T07:00:35;16.13;;;13.23;;
12163;SDS011;6145;50.192;10.064;2022-12-11T07:03:02;15.63;;;12.40;;
12163;SDS011;6145;50.192;10.064;2022-12-11T07:05:30;14.83;;;11.83;;
12163;SDS011;6145;50.192;10.064;2022-12-11T07:07:57;16.37;;;12.37;;
12163;SDS011;6145;50.192;10.064;2022-12-11T07:10:26;14.73;;;12.03;;
12163;SDS011;6145;50.192;10.064;2022-12-11T07:12:53;16.20;;;12.90;;
12163;SDS011;6145;50.192;10.064;2022-12-11T07:15:23;17.37;;;14.13;;
12163;SDS011;6145;50.192;10.064;2022-12-11T07:17:50;15.03;;;12.63;;
12163;SDS011;6145;50.192;10.064;2022-12-11T07:20:17;17.60;;;13.37;;
12163;SDS011;6145;50.192;10.064;2022-12-11T07:22:44;19.60;;;15.20;;
12163;SDS011;6145;50.192;10.064;2022-12-11T07:25:11;16.03;;;13.10;;
12163;SDS011;6145;50.192;10.064;2022-12-11T07:27:39;19.03;;;15.43;;
12163;SDS011;6145;50.192;10.064;2022-12-11T07:30:07;20.67;;;16.70;;
12163;SDS011;6145;50.192;10.064;2022-12-11T07:32:35;17.63;;;13.57;;
12163;SDS011;6145;50.192;10.064;2022-12-11T07:35:02;17.47;;;14.33;;
12163;SDS011;6145;50.192;10.064;2022-12-11T07:37:29;19.67;;;15.00;;
12163;SDS011;6145;50.192;10.064;2022-12-11T07:39:56;18.40;;;14.93;;
12163;SDS011;6145;50.192;10.064;2022-12-11T07:42:27;18.47;;;15.87;;
12163;SDS011;6145;50.192;10.064;2022-12-11T07:44:55;17.30;;;15.37;;
12163;SDS011;6145;50.192;10.064;2022-12-11T07:47:22;21.00;;;16.63;;
12163;SDS011;6145;50.192;10.064;2022-12-11T07:49:49;19.43;;;14.57;;
12163;SDS011;6145;50.192;10.064;2022-12-11T07:52:16;16.90;;;13.97;;
12163;SDS011;6145;50.192;10.064;2022-12-11T07:54:43;17.53;;;14.03;;
12163;SDS011;6145;50.192;10.064;2022-12-11T07:57:09;19.83;;;15.70;;
12163;SDS011;6145;50.192;10.064;2022-12-11T07:59:36;18.50;;;14.57;;
12163;SDS011;6145;50.192;10.064;2022-12-11T08:02:04;19.37;;;14.97;;
12163;SDS011;6145;50.192;10.064;2022-12-11T08:04:31;19.57;;;14.70;;
12163;SDS011;6145;50.192;10.064;2022-12-11T08:06:58;20.90;;;15.87;;
12163;SDS011;6145;50.192;10.064;2022-12-11T08:09:25;18.60;;;14.83;;
12163;SDS011;6145;50.192;10.064;2022-12-11T08:11:55;18.23;;;14.17;;
12163;SDS011;6145;50.192;10.064;2022-12-11T08:14:22;17.67;;;14.83;;
12163;SDS011;6145;50.192;10.064;2022-12-11T08:16:48;16.93;;;14.07;;
12163;SDS011;6145;50.192;10.064;2022-12-11T08:19:17;19.43;;;14.43;;
12163;SDS011;6145;50.192;10.064;2022-12-11T08:21:44;18.20;;;13.93;;
12163;SDS011;6145;50.192;10.064;2022-12-11T08:24:11;16.37;;;13.90;;
12163;SDS011;6145;50.192;10.064;2022-12-11T08:26:40;18.33;;;15.03;;
12163;SDS011;6145;50.192;10.064;2022-12-11T08:29:07;20.63;;;16.13;;
12163;SDS011;6145;50.192;10.064;2022-12-11T08:31:35;20.27;;;15.10;;
12163;SDS011;6145;50.192;10.064;2022-12-11T08:34:02;20.23;;;15.87;;
12163;SDS011;6145;50.192;10.064;2022-12-11T08:36:30;25.57;;;20.17;;
12163;SDS011;6145;50.192;10.064;2022-12-11T08:38:57;24.17;;;18.57;;
12163;SDS011;6145;50.192;10.064;2022-12-11T08:41:25;19.77;;;15.43;;
12163;SDS011;6145;50.192;10.064;2022-12-11T08:43:53;20.13;;;17.13;;
12163;SDS011;6145;50.192;10.064;2022-12-11T08:46:22;35.20;;;29.83;;
12163;SDS011;6145;50.192;10.064;2022-12-11T08:48:50;20.20;;;16.47;;
12163;SDS011;6145;50.192;10.064;2022-12-11T08:51:18;21.40;;;17.17;;
12163;SDS011;6145;50.192;10.064;2022-12-11T08:53:48;19.67;;;15.73;;
12163;SDS011;6145;50.192;10.064;2022-12-11T08:56:17;17.37;;;13.90;;
12163;SDS011;6145;50.192;10.064;2022-12-11T08:58:45;21.43;;;15.90;;
12163;SDS011;6145;50.192;10.064;2022-12-11T09:01:13;24.13;;;17.70;;
12163;SDS011;6145;50.192;10.064;2022-12-11T09:03:42;21.20;;;17.17;;
12163;SDS011;6145;50.192;10.064;2022-12-11T09:06:10;20.97;;;16.23;;
12163;SDS011;6145;50.192;10.064;2022-12-11T09:08:38;21.77;;;18.47;;
12163;SDS011;6145;50.192;10.064;2022-12-11T09:11:07;20.23;;;16.63;;
12163;SDS011;6145;50.192;10.064;2022-12-11T09:13:37;21.77;;;16.47;;
12163;SDS011;6145;50.192;10.064;2022-12-11T09:16:06;19.23;;;15.60;;
12163;SDS011;6145;50.192;10.064;2022-12-11T09:18:34;19.20;;;15.40;;
12163;SDS011;6145;50.192;10.064;2022-12-11T09:21:01;31.23;;;20.63;;
12163;SDS011;6145;50.192;10.064;2022-12-11T09:23:31;33.53;;;23.37;;
12163;SDS011;6145;50.192;10.064;2022-12-11T09:25:58;27.20;;;20.27;;
12163;SDS011;6145;50.192;10.064;2022-12-11T09:28:26;22.10;;;16.40;;
12163;SDS011;6145;50.192;10.064;2022-12-11T09:30:53;21.63;;;16.80;;
12163;SDS011;6145;50.192;10.064;2022-12-11T09:33:20;19.77;;;15.47;;
12163;SDS011;6145;50.192;10.064;2022-12-11T09:35:55;20.50;;;15.97;;
12163;SDS011;6145;50.192;10.064;2022-12-11T09:38:22;18.97;;;15.47;;
12163;SDS011;6145;50.192;10.064;2022-12-11T09:40:49;20.87;;;16.20;;
12163;SDS011;6145;50.192;10.064;2022-12-11T09:43:26;17.77;;;14.67;;
12163;SDS011;6145;50.192;10.064;2022-12-11T09:46:04;17.07;;;13.37;;
12163;SDS011;6145;50.192;10.064;2022-12-11T09:48:38;15.60;;;13.03;;
12163;SDS011;6145;50.192;10.064;2022-12-11T09:51:09;16.70;;;13.10;;
12163;SDS011;6145;50.192;10.064;2022-12-11T09:53:44;18.00;;;13.73;;
12163;SDS011;6145;50.192;10.064;2022-12-11T09:56:14;15.43;;;12.90;;
12163;SDS011;6145;50.192;10.064;2022-12-11T09:58:54;16.93;;;13.63;;
12163;SDS011;6145;50.192;10.064;2022-12-11T10:01:30;19.20;;;13.87;;
12163;SDS011;6145;50.192;10.064;2022-12-11T10:04:14;15.43;;;12.17;;
12163;SDS011;6145;50.192;10.064;2022-12-11T10:06:55;15.97;;;12.60;;
12163;SDS011;6145;50.192;10.064;2022-12-11T10:09:29;16.27;;;13.30;;
12163;SDS011;6145;50.192;10.064;2022-12-11T10:12:07;14.13;;;11.47;;
12163;SDS011;6145;50.192;10.064;2022-12-11T10:14:50;14.63;;;11.97;;
12163;SDS011;6145;50.192;10.064;2022-12-11T10:17:26;16.73;;;13.87;;
12163;SDS011;6145;50.192;10.064;2022-12-11T10:19:55;14.70;;;10.80;;
12163;SDS011;6145;50.192;10.064;2022-12-11T10:22:28;16.47;;;13.33;;
12163;SDS011;6145;50.192;10.064;2022-12-11T10:24:58;13.10;;;10.83;;
12163;SDS011;6145;50.192;10.064;2022-12-11T10:27:30;15.47;;;11.70;;
12163;SDS011;6145;50.192;10.064;2022-12-11T10:30:15;14.57;;;12.73;;
12163;SDS011;6145;50.192;10.064;2022-12-11T10:32:52;13.33;;;11.37;;
12163;SDS011;6145;50.192;10.064;2022-12-11T10:35:30;11.57;;;9.60;;
12163;SDS011;6145;50.192;10.064;2022-12-11T10:38:05;13.37;;;11.03;;
12163;SDS011;6145;50.192;10.064;2022-12-11T10:40:42;12.40;;;10.57;;
12163;SDS011;6145;50.192;10.064;2022-12-11T10:43:32;12.97;;;10.73;;
12163;SDS011;6145;50.192;10.064;2022-12-11T10:49:23;14.47;;;10.90;;
12163;SDS011;6145;50.192;10.064;2022-12-11T10:52:17;13.93;;;11.53;;
12163;SDS011;6145;50.192;10.064;2022-12-11T10:54:52;12.97;;;10.23;;
12163;SDS011;6145;50.192;10.064;2022-12-11T10:57:27;13.33;;;11.20;;
12163;SDS011;6145;50.192;10.064;2022-12-11T10:59:57;12.30;;;10.43;;
12163;SDS011;6145;50.192;10.064;2022-12-11T11:02:27;14.10;;;11.90;;
12163;SDS011;6145;50.192;10.064;2022-12-11T11:05:09;14.03;;;11.50;;
12163;SDS011;6145;50.192;10.064;2022-12-11T11:07:38;16.13;;;12.13;;
12163;SDS011;6145;50.192;10.064;2022-12-11T11:10:13;13.73;;;11.23;;
12163;SDS011;6145;50.192;10.064;2022-12-11T11:12:42;17.00;;;12.20;;
12163;SDS011;6145;50.192;10.064;2022-12-11T11:15:13;13.17;;;10.77;;
12163;SDS011;6145;50.192;10.064;2022-12-11T11:17:46;14.77;;;11.73;;
12163;SDS011;6145;50.192;10.064;2022-12-11T11:20:15;18.23;;;13.03;;
12163;SDS011;6145;50.192;10.064;2022-12-11T11:22:45;14.00;;;11.73;;
12163;SDS011;6145;50.192;10.064;2022-12-11T11:25:16;14.90;;;12.37;;
12163;SDS011;6145;50.192;10.064;2022-12-11T11:27:59;14.60;;;11.10;;
12163;SDS011;6145;50.192;10.064;2022-12-11T11:30:32;13.80;;;10.90;;
12163;SDS011;6145;50.192;10.064;2022-12-11T11:33:10;13.03;;;10.67;;
12163;SDS011;6145;50.192;10.064;2022-12-11T11:35:50;13.20;;;10.80;;
12163;SDS011;6145;50.192;10.064;2022-12-11T11:38:25;13.63;;;11.30;;
12163;SDS011;6145;50.192;10.064;2022-12-11T11:40:57;13.37;;;10.97;;
12163;SDS011;6145;50.192;10.064;2022-12-11T11:43:41;14.07;;;11.33;;
12163;SDS011;6145;50.192;10.064;2022-12-11T11:46:11;13.40;;;11.13;;
12163;SDS011;6145;50.192;10.064;2022-12-11T11:48:51;14.23;;;11.87;;
12163;SDS011;6145;50.192;10.064;2022-12-11T11:51:26;13.73;;;11.00;;
12163;SDS011;6145;50.192;10.064;2022-12-11T11:53:57;15.00;;;12.13;;
12163;SDS011;6145;50.192;10.064;2022-12-11T11:56:27;11.47;;;10.27;;
12163;SDS011;6145;50.192;10.064;2022-12-11T11:59:06;13.57;;;11.03;;
12163;SDS011;6145;50.192;10.064;2022-12-11T12:01:42;12.90;;;10.10;;
12163;SDS011;6145;50.192;10.064;2022-12-11T12:04:11;15.47;;;11.90;;
12163;SDS011;6145;50.192;10.064;2022-12-11T12:06:43;13.67;;;11.00;;
12163;SDS011;6145;50.192;10.064;2022-12-11T12:09:40;13.23;;;11.37;;
12163;SDS011;6145;50.192;10.064;2022-12-11T12:12:16;14.10;;;12.17;;
12163;SDS011;6145;50.192;10.064;2022-12-11T12:14:52;13.40;;;11.50;;
12163;SDS011;6145;50.192;10.064;2022-12-11T12:17:28;15.63;;;12.30;;
12163;SDS011;6145;50.192;10.064;2022-12-11T12:20:08;12.60;;;10.47;;
12163;SDS011;6145;50.192;10.064;2022-12-11T12:22:47;12.73;;;11.10;;
12163;SDS011;6145;50.192;10.064;2022-12-11T12:25:23;13.83;;;11.27;;
12163;SDS011;6145;50.192;10.064;2022-12-11T12:27:58;13.57;;;10.73;;
12163;SDS011;6145;50.192;10.064;2022-12-11T12:30:34;11.97;;;10.57;;
12163;SDS011;6145;50.192;10.064;2022-12-11T12:33:12;13.57;;;10.53;;
12163;SDS011;6145;50.192;10.064;2022-12-11T12:35:50;15.43;;;11.87;;
12163;SDS011;6145;50.192;10.064;2022-12-11T12:38:22;15.73;;;13.40;;
12163;SDS011;6145;50.192;10.064;2022-12-11T12:41:04;13.37;;;10.97;;
12163;SDS011;6145;50.192;10.064;2022-12-11T12:43:49;15.53;;;13.13;;
12163;SDS011;6145;50.192;10.064;2022-12-11T12:46:26;12.10;;;10.67;;
12163;SDS011;6145;50.192;10.064;2022-12-11T12:49:03;16.17;;;13.73;;
12163;SDS011;6145;50.192;10.064;2022-12-11T12:51:38;15.40;;;12.07;;
12163;SDS011;6145;50.192;10.064;2022-12-11T12:54:08;18.30;;;12.83;;
12163;SDS011;6145;50.192;10.064;2022-12-11T12:56:41;17.63;;;13.93;;
12163;SDS011;6145;50.192;10.064;2022-12-11T12:59:17;15.53;;;12.43;;
12163;SDS011;6145;50.192;10.064;2022-12-11T13:01:46;14.10;;;11.67;;
12163;SDS011;6145;50.192;10.064;2022-12-11T13:04:25;14.20;;;11.87;;
12163;SDS011;6145;50.192;10.064;2022-12-11T13:07:12;14.13;;;11.10;;
12163;SDS011;6145;50.192;10.064;2022-12-11T13:09:42;13.93;;;11.67;;
12163;SDS011;6145;50.192;10.064;2022-12-11T13:12:30;16.70;;;12.23;;
12163;SDS011;6145;50.192;10.064;2022-12-11T13:15:00;15.47;;;12.03;;
12163;SDS011;6145;50.192;10.064;2022-12-11T13:17:36;17.83;;;12.80;;
12163;SDS011;6145;50.192;10.064;2022-12-11T13:20:09;17.93;;;12.40;;
12163;SDS011;6145;50.192;10.064;2022-12-11T13:22:52;14.70;;;12.60;;
12163;SDS011;6145;50.192;10.064;2022-12-11T13:25:25;17.90;;;13.20;;
12163;SDS011;6145;50.192;10.064;2022-12-11T13:28:03;14.93;;;11.90;;
12163;SDS011;6145;50.192;10.064;2022-12-11T13:30:56;16.97;;;12.77;;
12163;SDS011;6145;50.192;10.064;2022-12-11T13:33:41;14.83;;;11.77;;
12163;SDS011;6145;50.192;10.064;2022-12-11T13:36:19;16.50;;;12.43;;
12163;SDS011;6145;50.192;10.064;2022-12-11T13:39:02;15.13;;;12.27;;
12163;SDS011;6145;50.192;10.064;2022-12-11T13:41:36;14.40;;;12.07;;
12163;SDS011;6145;50.192;10.064;2022-12-11T13:44:05;15.57;;;12.50;;
12163;SDS011;6145;50.192;10.064;2022-12-11T13:46:34;17.37;;;15.33;;
12163;SDS011;6145;50.192;10.064;2022-12-11T13:49:05;19.57;;;17.00;;
12163;SDS011;6145;50.192;10.064;2022-12-11T13:51:33;17.33;;;15.07;;
12163;SDS011;6145;50.192;10.064;2022-12-11T13:54:04;18.97;;;16.70;;
12163;SDS011;6145;50.192;10.064;2022-12-11T13:56:37;16.67;;;14.07;;
12163;SDS011;6145;50.192;10.064;2022-12-11T13:59:15;15.73;;;12.23;;
12163;SDS011;6145;50.192;10.064;2022-12-11T14:01:46;16.07;;;12.63;;
12163;SDS011;6145;50.192;10.064;2022-12-11T14:04:16;16.60;;;13.00;;
12163;SDS011;6145;50.192;10.064;2022-12-11T14:06:46;17.73;;;13.10;;
12163;SDS011;6145;50.192;10.064;2022-12-11T14:09:16;17.43;;;13.30;;
12163;SDS011;6145;50.192;10.064;2022-12-11T14:11:48;14.50;;;12.60;;
12163;SDS011;6145;50.192;10.064;2022-12-11T14:14:16;16.27;;;12.50;;
12163;SDS011;6145;50.192;10.064;2022-12-11T14:16:47;14.07;;;11.17;;
12163;SDS011;6145;50.192;10.064;2022-12-11T14:19:15;13.37;;;10.77;;
12163;SDS011;6145;50.192;10.064;2022-12-11T14:21:53;15.63;;;12.73;;
12163;SDS011;6145;50.192;10.064;2022-12-11T14:24:22;15.17;;;12.23;;
12163;SDS011;6145;50.192;10.064;2022-12-11T14:26:50;15.90;;;12.13;;
12163;SDS011;6145;50.192;10.064;2022-12-11T14:29:22;16.57;;;12.80;;
12163;SDS011;6145;50.192;10.064;2022-12-11T14:31:50;14.90;;;11.97;;
12163;SDS011;6145;50.192;10.064;2022-12-11T14:34:19;13.93;;;11.73;;
12163;SDS011;6145;50.192;10.064;2022-12-11T14:36:49;14.07;;;11.93;;
12163;SDS011;6145;50.192;10.064;2022-12-11T14:39:17;15.93;;;12.47;;
12163;SDS011;6145;50.192;10.064;2022-12-11T14:41:52;13.60;;;12.00;;
12163;SDS011;6145;50.192;10.064;2022-12-11T14:44:23;15.87;;;12.37;;
12163;SDS011;6145;50.192;10.064;2022-12-11T14:46:54;16.10;;;13.27;;
12163;SDS011;6145;50.192;10.064;2022-12-11T14:49:25;14.97;;;12.53;;